Time;durP1;ratioP1;P1;durP2;ratioP2;P2;SDS_P1;SDS_P2;PMS_P1;PMS_P2;Temp;Humidity;BMP_temperature;BMP_pressure;BME280_temperature;BME280_humidity;BME280_pressure;Samples;Min_cycle;Max_cycle;Signal;HPM_P1;HPM_P2
2021/05/12 00:00:29;;;;;;;8.60;4.83;;;14.10;94.90;;;;;;8253925;28;20276;-72
2021/05/12 00:04:29;;;;;;;11.33;5.40;;;14.00;94.90;;;;;;8264174;28;20206;-72
2021/05/12 00:08:30;;;;;;;8.63;5.17;;;14.10;95.00;;;;;;8259474;28;20191;-72
2021/05/12 00:12:31;;;;;;;11.03;6.20;;;14.10;95.10;;;;;;8257651;28;20191;-73
2021/05/12 00:16:31;;;;;;;14.93;6.40;;;14.10;95.00;;;;;;8261134;28;21648;-73
2021/05/12 00:20:32;;;;;;;9.60;6.07;;;14.20;94.80;;;;;;8258215;28;20223;-74
2021/05/12 00:24:35;;;;;;;15.63;7.10;;;14.20;94.80;;;;;;8256406;28;20218;-73
2021/05/12 00:28:36;;;;;;;17.67;7.67;;;14.20;94.80;;;;;;8250198;28;20188;-74
2021/05/12 00:32:37;;;;;;;10.27;8.00;;;14.10;94.80;;;;;;8253148;28;20454;-73
2021/05/12 00:36:37;;;;;;;9.47;7.47;;;14.20;94.90;;;;;;8254975;28;20197;-72
2021/05/12 00:40:38;;;;;;;14.10;9.00;;;14.20;94.90;;;;;;8259156;28;20849;-72
2021/05/12 00:44:39;;;;;;;11.50;7.80;;;14.30;94.90;;;;;;8255087;28;20249;-72
2021/05/12 00:48:39;;;;;;;13.43;9.50;;;14.30;94.80;;;;;;8258793;28;20183;-73
2021/05/12 00:52:40;;;;;;;14.00;10.20;;;14.40;94.70;;;;;;8265400;28;20678;-73
2021/05/12 00:56:42;;;;;;;13.70;8.73;;;14.40;94.70;;;;;;8259435;28;20194;-72
2021/05/12 01:00:44;;;;;;;18.57;9.63;;;14.50;94.60;;;;;;8251766;28;20187;-75
2021/05/12 01:04:45;;;;;;;18.13;11.20;;;14.50;94.60;;;;;;8267880;28;20479;-74
2021/05/12 01:08:46;;;;;;;14.60;11.67;;;14.60;94.60;;;;;;8245130;28;20443;-75
2021/05/12 01:12:47;;;;;;;17.67;11.03;;;14.60;94.50;;;;;;8250993;28;20474;-75
2021/05/12 01:16:48;;;;;;;19.60;13.43;;;14.60;94.70;;;;;;8262121;28;20182;-75
2021/05/12 01:21:04;;;;;;;20.20;12.00;;;14.60;94.70;;;;;;8254450;28;20454;-75
2021/05/12 01:25:05;;;;;;;18.90;12.63;;;14.60;94.70;;;;;;8246404;28;20694;-75
2021/05/12 01:29:07;;;;;;;17.87;13.10;;;14.70;94.60;;;;;;8253706;28;20452;-75
2021/05/12 01:33:09;;;;;;;16.77;12.33;;;14.70;94.70;;;;;;8248378;28;20451;-74
2021/05/12 01:37:10;;;;;;;20.20;13.83;;;14.70;94.70;;;;;;8255794;28;20959;-75
2021/05/12 01:41:11;;;;;;;18.30;14.47;;;14.70;94.80;;;;;;8248446;28;20979;-74
2021/05/12 01:45:13;;;;;;;23.37;14.03;;;14.70;94.80;;;;;;8252862;28;20512;-74
2021/05/12 01:49:14;;;;;;;24.07;13.17;;;14.60;94.80;;;;;;8251589;28;20440;-75
2021/05/12 01:53:15;;;;;;;22.63;13.63;;;14.60;94.80;;;;;;8250141;28;20517;-74
2021/05/12 01:57:16;;;;;;;25.07;14.17;;;14.60;94.80;;;;;;8253160;28;21677;-75
2021/05/12 02:01:17;;;;;;;21.00;15.57;;;14.50;95.00;;;;;;8260964;28;20495;-74
2021/05/12 02:05:18;;;;;;;18.33;14.47;;;14.50;95.00;;;;;;8261722;28;20470;-74
2021/05/12 02:09:19;;;;;;;20.30;14.43;;;14.50;95.00;;;;;;8256251;28;20194;-75
2021/05/12 02:13:22;;;;;;;23.70;15.57;;;14.40;95.10;;;;;;8257313;28;20447;-74
2021/05/12 02:17:23;;;;;;;25.10;15.03;;;14.40;95.10;;;;;;8261700;28;20454;-74
2021/05/12 02:21:23;;;;;;;30.03;16.27;;;14.40;95.10;;;;;;8260042;28;20445;-74
2021/05/12 02:25:24;;;;;;;31.00;18.67;;;14.30;95.20;;;;;;8259153;28;20261;-75
2021/05/12 02:29:25;;;;;;;22.90;16.30;;;14.30;95.20;;;;;;8258678;28;20224;-74
2021/05/12 02:33:26;;;;;;;31.63;16.03;;;14.30;95.40;;;;;;8260542;28;20961;-75
2021/05/12 02:37:27;;;;;;;27.90;17.70;;;14.30;95.40;;;;;;8265530;28;20188;-74
2021/05/12 02:41:28;;;;;;;29.07;16.67;;;14.30;95.40;;;;;;8257462;28;20270;-74
2021/05/12 02:45:31;;;;;;;29.10;17.47;;;14.30;95.40;;;;;;8262213;28;20469;-74
2021/05/12 02:49:31;;;;;;;27.43;16.90;;;14.30;95.40;;;;;;8263413;28;20307;-74
2021/05/12 02:53:32;;;;;;;24.93;16.90;;;14.40;95.40;;;;;;8258701;28;20445;-75
2021/05/12 02:57:33;;;;;;;33.53;19.90;;;14.40;95.40;;;;;;8258281;28;20206;-74
2021/05/12 03:01:33;;;;;;;29.20;18.63;;;14.40;95.20;;;;;;8258716;28;20666;-74
2021/05/12 03:05:35;;;;;;;31.90;17.73;;;14.40;95.10;;;;;;8259824;28;20223;-74
2021/05/12 03:09:35;;;;;;;27.50;16.30;;;14.50;95.00;;;;;;8278190;28;20188;-74
2021/05/12 03:13:36;;;;;;;24.07;16.67;;;14.50;94.90;;;;;;8265977;28;20458;-74
2021/05/12 03:17:37;;;;;;;20.17;16.17;;;14.60;94.90;;;;;;8272058;28;20187;-74
2021/05/12 03:21:41;;;;;;;34.63;19.23;;;14.60;94.80;;;;;;8255242;28;20190;-74
2021/05/12 03:25:41;;;;;;;55.20;18.43;;;14.60;94.60;;;;;;8272018;28;20222;-75
2021/05/12 03:29:42;;;;;;;26.57;18.60;;;14.60;94.60;;;;;;8254853;28;20457;-75
2021/05/12 03:33:43;;;;;;;30.90;17.93;;;14.60;94.60;;;;;;8260059;28;20223;-75
2021/05/12 03:37:44;;;;;;;31.43;18.47;;;14.60;94.50;;;;;;8252212;28;20198;-74
2021/05/12 03:41:45;;;;;;;28.73;18.40;;;14.60;94.40;;;;;;8258677;28;20543;-74
2021/05/12 03:45:45;;;;;;;30.00;18.30;;;14.60;94.40;;;;;;8258342;28;20474;-74
2021/05/12 03:49:46;;;;;;;27.90;19.07;;;14.50;94.40;;;;;;8251915;28;20624;-74
2021/05/12 03:53:46;;;;;;;28.33;16.97;;;14.50;94.30;;;;;;8255163;28;20215;-76
2021/05/12 03:57:47;;;;;;;24.30;16.90;;;14.50;94.30;;;;;;8252034;28;20188;-75
2021/05/12 04:01:48;;;;;;;29.47;18.90;;;14.50;94.30;;;;;;8263017;28;20201;-76
2021/05/12 04:05:49;;;;;;;22.53;15.90;;;14.50;94.30;;;;;;8255684;28;20211;-76
2021/05/12 04:09:50;;;;;;;36.73;17.03;;;14.50;94.40;;;;;;8256097;28;20481;-74
2021/05/12 04:13:50;;;;;;;25.07;14.27;;;14.50;94.30;;;;;;8263966;28;20190;-75
2021/05/12 04:17:51;;;;;;;24.57;14.50;;;14.50;94.30;;;;;;8256483;28;20234;-74
2021/05/12 04:21:52;;;;;;;20.70;13.13;;;14.50;94.30;;;;;;8259530;28;20221;-76
2021/05/12 04:25:52;;;;;;;23.70;12.57;;;14.50;94.20;;;;;;8253851;28;20289;-75
2021/05/12 04:29:53;;;;;;;18.83;11.47;;;14.60;94.20;;;;;;8260101;28;20194;-75
2021/05/12 04:33:56;;;;;;;19.77;10.27;;;14.60;94.20;;;;;;8273510;28;20187;-75
2021/05/12 04:37:57;;;;;;;17.23;11.20;;;14.60;94.00;;;;;;8258331;28;20195;-75
2021/05/12 04:41:57;;;;;;;14.40;10.60;;;14.60;93.80;;;;;;8253995;28;20475;-74
2021/05/12 04:45:58;;;;;;;14.53;7.83;;;14.60;93.80;;;;;;8254323;28;20778;-75
2021/05/12 04:49:59;;;;;;;10.43;7.13;;;14.70;93.70;;;;;;8254994;28;20860;-75
2021/05/12 04:54:00;;;;;;;10.33;6.43;;;14.70;93.50;;;;;;8257080;28;20183;-75
2021/05/12 04:58:00;;;;;;;8.10;7.07;;;14.70;93.30;;;;;;8253786;28;20191;-75
2021/05/12 05:02:03;;;;;;;12.13;6.60;;;14.70;93.20;;;;;;8252778;28;20553;-74
2021/05/12 05:06:04;;;;;;;14.00;6.80;;;14.70;93.20;;;;;;8251818;28;20205;-75
2021/05/12 05:10:06;;;;;;;10.13;6.23;;;14.70;93.00;;;;;;8261123;28;20439;-74
2021/05/12 05:14:07;;;;;;;7.40;5.70;;;14.70;93.00;;;;;;8245678;28;20189;-75
2021/05/12 05:18:08;;;;;;;12.33;6.00;;;14.80;93.00;;;;;;8253871;28;20482;-75
2021/05/12 05:22:11;;;;;;;14.47;6.13;;;14.70;92.90;;;;;;8264633;28;20683;-75
2021/05/12 05:26:12;;;;;;;11.60;5.43;;;14.80;92.80;;;;;;8253545;28;21783;-76
2021/05/12 05:30:13;;;;;;;8.20;5.83;;;14.80;92.70;;;;;;8253902;28;21109;-75
2021/05/12 05:34:14;;;;;;;7.20;4.93;;;14.80;92.60;;;;;;8264544;28;20190;-75
2021/05/12 05:38:14;;;;;;;5.07;4.00;;;14.90;92.60;;;;;;8258498;28;20521;-74
2021/05/12 05:42:15;;;;;;;8.17;5.10;;;14.90;92.50;;;;;;8255808;28;20204;-75
2021/05/12 05:46:16;;;;;;;4.93;4.50;;;15.00;92.40;;;;;;8269058;28;20239;-76
2021/05/12 05:50:21;;;;;;;9.27;5.87;;;15.10;92.30;;;;;;8261086;28;20283;-75
2021/05/12 05:54:22;;;;;;;6.40;4.20;;;15.10;92.30;;;;;;8258427;28;20802;-75
2021/05/12 05:58:23;;;;;;;5.83;4.53;;;15.20;92.30;;;;;;8264413;28;21042;-74
2021/05/12 06:02:27;;;;;;;8.93;4.97;;;15.30;92.00;;;;;;8261302;28;20447;-75
2021/05/12 06:06:27;;;;;;;12.53;4.80;;;15.40;91.80;;;;;;8264884;28;20176;-75
2021/05/12 06:10:28;;;;;;;9.03;4.80;;;15.50;91.70;;;;;;8261665;28;20451;-75
2021/05/12 06:14:29;;;;;;;9.17;4.10;;;15.60;91.80;;;;;;8257663;28;20199;-75
2021/05/12 06:18:32;;;;;;;5.33;4.87;;;15.80;91.90;;;;;;8255655;28;20192;-75
2021/05/12 06:22:35;;;;;;;10.07;4.43;;;15.90;91.50;;;;;;8258057;28;20204;-75
2021/05/12 06:26:37;;;;;;;9.10;5.13;;;16.20;91.50;;;;;;8268042;28;20806;-75
2021/05/12 06:30:38;;;;;;;5.37;4.83;;;16.40;91.40;;;;;;8254209;28;20462;-75
2021/05/12 06:34:39;;;;;;;5.90;4.20;;;16.70;90.90;;;;;;8249132;28;20450;-75
2021/05/12 06:38:39;;;;;;;9.00;4.30;;;16.90;90.50;;;;;;8260615;28;20670;-75
2021/05/12 06:42:40;;;;;;;6.00;4.37;;;17.00;90.00;;;;;;8271672;28;20214;-75
2021/05/12 06:46:40;;;;;;;9.37;4.27;;;17.00;90.00;;;;;;8257882;28;20257;-75
2021/05/12 06:50:41;;;;;;;7.20;4.33;;;17.00;89.50;;;;;;8252919;28;20202;-75
2021/05/12 06:54:42;;;;;;;5.77;5.27;;;17.00;90.00;;;;;;8248632;28;20199;-76
2021/05/12 06:58:42;;;;;;;8.10;4.83;;;17.10;89.40;;;;;;8261408;28;20735;-76
2021/05/12 07:02:43;;;;;;;4.73;4.10;;;17.20;89.40;;;;;;8253368;28;20627;-76
2021/05/12 07:06:44;;;;;;;5.30;3.63;;;17.40;89.10;;;;;;8256641;28;20191;-79
2021/05/12 07:10:45;;;;;;;7.97;3.90;;;17.60;87.80;;;;;;8242691;28;20449;-74
2021/05/12 07:14:46;;;;;;;4.87;3.70;;;17.80;87.50;;;;;;8252531;28;20447;-73
2021/05/12 07:18:48;;;;;;;4.53;3.90;;;18.00;85.70;;;;;;8248719;28;20498;-75
2021/05/12 07:22:49;;;;;;;6.17;4.17;;;18.20;85.40;;;;;;8252485;28;20239;-73
2021/05/12 07:26:50;;;;;;;5.30;4.00;;;18.40;85.50;;;;;;8271557;28;20531;-74
2021/05/12 07:30:51;;;;;;;7.53;3.77;;;18.60;84.20;;;;;;8254827;28;20459;-73
2021/05/12 07:34:52;;;;;;;4.70;3.63;;;18.70;82.30;;;;;;8254580;28;20583;-73
2021/05/12 07:38:53;;;;;;;7.17;3.40;;;18.90;81.80;;;;;;8253587;28;21486;-74
2021/05/12 07:42:55;;;;;;;7.33;3.67;;;19.10;81.90;;;;;;8250575;28;20201;-74
2021/05/12 07:46:55;;;;;;;3.57;3.23;;;19.60;81.40;;;;;;8246171;28;20209;-73
2021/05/12 07:50:56;;;;;;;8.20;3.07;;;20.00;79.60;;;;;;8246239;28;20463;-75
2021/05/12 07:54:57;;;;;;;4.17;3.23;;;20.30;77.40;;;;;;8250623;28;20188;-74
2021/05/12 07:59:00;;;;;;;7.00;3.60;;;20.70;75.70;;;;;;8251766;28;20766;-74
2021/05/12 08:03:04;;;;;;;7.33;2.90;;;21.00;74.50;;;;;;8252234;28;20285;-73
2021/05/12 08:07:09;;;;;;;27.07;4.10;;;21.30;73.40;;;;;;8252386;28;20408;-74
2021/05/12 08:11:10;;;;;;;6.60;3.30;;;21.40;72.60;;;;;;8253315;28;20412;-74
2021/05/12 08:15:11;;;;;;;11.77;4.10;;;21.40;72.70;;;;;;8258832;28;20415;-73
2021/05/12 08:19:13;;;;;;;9.33;3.17;;;21.10;72.70;;;;;;8270347;28;20188;-73
2021/05/12 08:23:14;;;;;;;10.63;3.30;;;20.90;73.00;;;;;;8250873;28;20477;-73
2021/05/12 08:27:15;;;;;;;5.67;3.43;;;21.00;73.70;;;;;;8249411;28;20444;-73
2021/05/12 08:31:17;;;;;;;11.93;3.70;;;21.40;73.60;;;;;;8251657;28;20234;-73
2021/05/12 08:35:21;;;;;;;6.73;3.50;;;22.10;72.10;;;;;;8274498;28;20193;-76
2021/05/12 08:39:21;;;;;;;7.50;2.67;;;23.00;70.10;;;;;;8245135;28;20448;-74
2021/05/12 08:43:24;;;;;;;10.57;3.30;;;23.80;66.70;;;;;;8263275;28;20536;-74
2021/05/12 08:47:25;;;;;;;4.87;2.53;;;23.90;65.00;;;;;;8251689;28;20576;-75
2021/05/12 08:51:26;;;;;;;4.27;2.50;;;23.60;63.60;;;;;;8248772;28;20440;-74
2021/05/12 08:55:27;;;;;;;9.87;3.60;;;23.30;65.30;;;;;;8243375;28;20540;-76
2021/05/12 08:59:28;;;;;;;6.13;3.23;;;23.40;65.60;;;;;;8244454;28;20440;-76
2021/05/12 09:03:28;;;;;;;5.80;2.87;;;23.50;64.40;;;;;;8247128;28;20309;-75
2021/05/12 09:07:29;;;;;;;8.53;4.70;;;23.60;64.50;;;;;;8245208;28;20184;-76
2021/05/12 09:11:32;;;;;;;7.63;3.50;;;24.20;62.80;;;;;;8246925;28;20181;-76
2021/05/12 09:15:33;;;;;;;8.63;3.67;;;24.40;60.90;;;;;;8245179;28;20231;-75
2021/05/12 09:19:34;;;;;;;7.80;3.30;;;24.90;59.40;;;;;;8246933;28;20599;-76
2021/05/12 09:23:43;;;;;;;7.23;3.50;;;25.20;57.80;;;;;;8250502;28;20475;-76
2021/05/12 09:27:51;;;;;;;7.43;3.40;;;25.00;57.90;;;;;;8250651;28;20182;-75
2021/05/12 09:32:19;;;;;;;6.83;4.17;;;24.80;59.60;;;;;;8236957;28;20449;-75
2021/05/12 09:36:29;;;;;;;9.90;3.73;;;24.90;58.90;;;;;;8236243;28;20496;-75
2021/05/12 09:40:30;;;;;;;4.57;3.90;;;24.50;59.00;;;;;;8241417;28;20440;-75
2021/05/12 09:44:31;;;;;;;8.43;4.53;;;23.90;59.80;;;;;;8244687;28;20475;-75
2021/05/12 09:48:31;;;;;;;4.80;4.30;;;23.40;61.40;;;;;;8267950;28;20200;-74
2021/05/12 09:52:32;;;;;;;8.07;4.33;;;22.90;62.20;;;;;;8267267;28;20452;-75
2021/05/12 09:56:40;;;;;;;5.30;4.67;;;22.50;63.10;;;;;;8249418;28;20182;-75
2021/05/12 10:00:43;;;;;;;7.90;4.23;;;22.10;63.60;;;;;;8254247;28;20178;-74
2021/05/12 10:04:51;;;;;;;5.97;4.00;;;21.80;65.70;;;;;;8240701;28;20467;-75
2021/05/12 10:08:51;;;;;;;9.33;5.03;;;21.60;66.50;;;;;;8243934;28;20422;-74
2021/05/12 10:12:52;;;;;;;11.53;5.00;;;21.50;67.10;;;;;;8244685;28;20426;-73
2021/05/12 10:16:53;;;;;;;7.07;5.10;;;21.40;67.60;;;;;;8260060;28;20192;-73
2021/05/12 10:20:57;;;;;;;7.23;4.50;;;21.50;68.70;;;;;;8253951;28;20184;-73
2021/05/12 10:24:58;;;;;;;9.50;6.57;;;21.70;68.70;;;;;;8247008;28;20205;-74
2021/05/12 10:28:59;;;;;;;9.23;4.90;;;21.70;68.80;;;;;;8255980;28;20448;-74
2021/05/12 10:33:00;;;;;;;9.87;4.80;;;21.60;67.30;;;;;;8258472;28;20239;-74
2021/05/12 10:37:22;;;;;;;7.83;5.37;;;21.60;67.70;;;;;;8250700;28;20532;-74
2021/05/12 10:41:36;;;;;;;8.50;4.67;;;21.60;67.90;;;;;;8247456;28;20575;-72
2021/05/12 10:45:58;;;;;;;10.47;4.87;;;21.60;66.60;;;;;;8258178;28;20445;-74
2021/05/12 10:49:58;;;;;;;6.87;5.33;;;21.70;68.10;;;;;;8255423;28;20493;-73
2021/05/12 10:54:03;;;;;;;6.10;4.10;;;21.80;65.80;;;;;;8252083;28;20448;-73
2021/05/12 10:58:15;;;;;;;7.20;4.90;;;22.10;63.60;;;;;;8257665;28;20184;-76
2021/05/12 11:02:15;;;;;;;8.80;4.00;;;22.80;64.50;;;;;;8254264;28;20457;-74
2021/05/12 11:06:24;;;;;;;10.17;5.20;;;23.50;63.70;;;;;;8247853;28;20459;-74
2021/05/12 11:10:50;;;;;;;5.33;3.90;;;23.90;60.90;;;;;;8249915;28;20617;-74
2021/05/12 11:14:56;;;;;;;9.90;4.43;;;23.90;60.30;;;;;;8247216;28;20451;-75
2021/05/12 11:18:57;;;;;;;6.20;4.37;;;24.20;62.40;;;;;;8237829;28;20441;-74
2021/05/12 11:22:58;;;;;;;13.57;7.13;;;24.90;59.90;;;;;;8250154;28;20483;-74
2021/05/12 11:27:17;;;;;;;12.90;5.40;;;25.80;57.80;;;;;;8242095;28;20189;-74
2021/05/12 11:31:27;;;;;;;6.70;4.50;;;26.50;56.50;;;;;;8241079;28;20201;-75
2021/05/12 11:35:30;;;;;;;2.70;2.60;;;27.00;53.60;;;;;;8250186;28;20440;-74
2021/05/12 11:39:31;;;;;;;3.40;3.17;;;27.00;54.70;;;;;;8249207;28;20985;-73
2021/05/12 11:43:43;;;;;;;10.60;5.00;;;27.50;53.10;;;;;;8241961;28;21181;-74
2021/05/12 11:47:58;;;;;;;7.13;5.00;;;27.50;52.70;;;;;;8243639;28;20264;-74
2021/05/12 11:52:00;;;;;;;5.57;4.40;;;27.70;52.40;;;;;;8243409;28;20720;-73
2021/05/12 11:56:01;;;;;;;9.73;5.93;;;28.00;50.80;;;;;;8239464;28;20456;-74
2021/05/12 12:00:14;;;;;;;7.30;6.13;;;27.10;50.20;;;;;;8243193;28;20476;-73
2021/05/12 12:04:29;;;;;;;9.27;5.40;;;25.70;51.10;;;;;;8243198;28;20218;-73
2021/05/12 12:08:30;;;;;;;5.83;5.17;;;24.40;53.70;;;;;;8246440;28;20755;-73
2021/05/12 12:12:32;;;;;;;10.87;5.80;;;23.50;56.20;;;;;;8247033;28;20539;-73
2021/05/12 12:16:37;;;;;;;7.97;4.70;;;23.00;56.50;;;;;;8251275;28;20474;-73
2021/05/12 12:20:44;;;;;;;5.83;5.23;;;22.80;57.00;;;;;;8252072;28;20448;-75
2021/05/12 12:24:45;;;;;;;6.77;5.43;;;22.80;57.00;;;;;;8248356;28;20473;-74
2021/05/12 12:29:06;;;;;;;7.13;5.67;;;22.70;56.40;;;;;;8241113;28;20427;-72
2021/05/12 12:33:09;;;;;;;5.50;4.30;;;22.80;56.90;;;;;;8263364;28;20200;-74
2021/05/12 12:37:17;;;;;;;8.43;3.87;;;24.10;55.70;;;;;;8251803;28;20489;-74
2021/05/12 12:41:18;;;;;;;6.10;3.37;;;25.30;51.60;;;;;;8255257;28;20436;-74
2021/05/12 12:45:21;;;;;;;7.13;4.00;;;25.20;50.80;;;;;;8256961;28;20472;-73
2021/05/12 12:49:33;;;;;;;3.63;3.43;;;24.70;51.40;;;;;;8248732;28;20418;-74
2021/05/12 12:53:34;;;;;;;3.83;3.53;;;24.30;52.40;;;;;;8253716;28;20467;-76
2021/05/12 12:57:43;;;;;;;4.80;3.60;;;23.80;53.10;;;;;;8255363;28;20453;-72
2021/05/12 13:01:47;;;;;;;9.10;4.53;;;23.50;53.60;;;;;;8253776;28;20772;-73
2021/05/12 13:05:55;;;;;;;5.73;3.90;;;23.10;54.30;;;;;;8255678;28;20947;-73
2021/05/12 13:09:55;;;;;;;5.37;4.50;;;22.60;56.80;;;;;;8242255;28;20411;-75
2021/05/12 13:14:02;;;;;;;9.93;5.53;;;22.10;58.60;;;;;;8253353;28;20421;-76
2021/05/12 13:18:06;;;;;;;13.10;5.00;;;21.80;62.10;;;;;;8250657;28;20935;-75
2021/05/12 13:22:11;;;;;;;6.23;5.20;;;21.40;62.60;;;;;;8238375;28;20440;-73
2021/05/12 13:26:14;;;;;;;6.10;4.80;;;21.20;67.30;;;;;;8240483;28;20985;-76
2021/05/12 13:30:14;;;;;;;8.47;5.37;;;21.00;67.90;;;;;;8249552;28;20514;-73
2021/05/12 13:34:18;;;;;;;10.90;5.53;;;21.00;69.40;;;;;;8243360;28;20452;-75
2021/05/12 13:38:20;;;;;;;5.67;5.10;;;20.90;67.60;;;;;;8246165;28;20192;-74
2021/05/12 13:42:20;;;;;;;5.97;5.17;;;20.90;66.30;;;;;;8233958;28;20973;-74
2021/05/12 13:46:21;;;;;;;11.67;5.83;;;20.80;67.00;;;;;;8237682;28;21074;-74
2021/05/12 13:50:27;;;;;;;5.43;4.93;;;20.60;67.80;;;;;;8251556;28;20196;-74
2021/05/12 13:54:33;;;;;;;9.53;6.90;;;20.70;65.70;;;;;;8243596;28;20190;-74
2021/05/12 14:02:55;;;;;;;6.13;4.87;;;21.80;67.20;;;;;;8243740;28;20489;-74
2021/05/12 14:06:56;;;;;;;12.40;5.00;;;22.90;62.50;;;;;;8259411;28;20871;-74
2021/05/12 14:10:57;;;;;;;7.17;5.20;;;23.60;60.90;;;;;;8254058;28;20810;-73
2021/05/12 14:15:32;;;;;;;5.83;5.43;;;23.90;57.70;;;;;;8246087;28;20419;-74
2021/05/12 14:19:20;;;;;;;5.13;3.30;;;24.20;59.00;;;;;;8254721;28;20489;-74
2021/05/12 14:23:20;;;;;;;6.10;4.73;;;24.50;56.40;;;;;;8249738;28;20474;-75
2021/05/12 14:27:22;;;;;;;8.30;4.80;;;24.00;57.60;;;;;;8247707;28;20445;-74
2021/05/12 14:31:25;;;;;;;13.23;5.20;;;23.40;58.30;;;;;;8247433;28;20593;-73
2021/05/12 14:35:25;;;;;;;8.03;4.00;;;22.90;57.90;;;;;;8259607;28;20436;-73
2021/05/12 14:39:33;;;;;;;8.57;4.70;;;22.40;59.40;;;;;;8250831;28;20500;-73
2021/05/12 14:43:33;;;;;;;6.70;4.60;;;22.10;59.00;;;;;;8257082;28;20213;-73
2021/05/12 14:47:34;;;;;;;5.30;4.77;;;21.90;59.70;;;;;;8254289;28;20445;-74
2021/05/12 14:51:38;;;;;;;4.07;3.73;;;21.70;60.50;;;;;;8252637;28;20892;-73
2021/05/12 15:04:12;;;;;;;9.43;4.23;;;22.10;59.40;;;;;;8259221;28;20813;-73
2021/05/12 15:08:14;;;;;;;8.03;4.50;;;22.10;59.10;;;;;;8253292;28;20432;-74
2021/05/12 15:12:15;;;;;;;6.60;4.13;;;22.30;59.50;;;;;;8249066;28;20519;-73
2021/05/12 15:16:16;;;;;;;4.13;3.83;;;22.50;58.10;;;;;;8250868;28;20431;-73
2021/05/12 15:20:16;;;;;;;5.73;4.20;;;23.00;57.70;;;;;;8257658;28;20212;-73
2021/05/12 15:24:20;;;;;;;4.13;3.80;;;23.50;57.60;;;;;;8258720;28;20241;-74
2021/05/12 15:28:22;;;;;;;4.87;3.50;;;23.70;56.10;;;;;;8249540;28;20288;-73
2021/05/12 15:32:23;;;;;;;5.90;3.50;;;23.60;55.50;;;;;;8262112;28;20455;-73
2021/05/12 15:36:24;;;;;;;6.53;4.17;;;23.40;54.80;;;;;;8252348;28;20403;-75
2021/05/12 15:40:28;;;;;;;5.93;4.00;;;23.20;56.60;;;;;;8256399;28;20213;-75
2021/05/12 15:44:36;;;;;;;3.80;3.50;;;23.00;56.60;;;;;;8259632;28;20200;-73
2021/05/12 15:48:37;;;;;;;7.27;3.40;;;22.70;56.80;;;;;;8253514;28;20501;-74
2021/05/12 15:52:38;;;;;;;7.83;6.60;;;22.50;58.70;;;;;;8260784;28;20418;-72
2021/05/12 15:56:50;;;;;;;7.20;5.63;;;22.10;62.40;;;;;;8256214;28;20439;-74
2021/05/12 16:00:51;;;;;;;7.37;6.60;;;21.60;64.80;;;;;;8246623;28;20468;-74
2021/05/12 16:04:55;;;;;;;7.90;7.00;;;21.00;67.00;;;;;;8247269;28;20476;-74
2021/05/12 16:08:56;;;;;;;8.83;7.97;;;20.30;72.50;;;;;;8258544;28;20304;-74
2021/05/12 16:12:57;;;;;;;11.37;9.50;;;19.50;74.60;;;;;;8255887;28;20451;-73
2021/05/12 16:17:00;;;;;;;13.63;8.57;;;18.80;77.50;;;;;;8244459;28;20211;-74
2021/05/12 16:21:01;;;;;;;14.03;9.83;;;18.30;79.30;;;;;;8265520;28;20199;-75
2021/05/12 16:25:02;;;;;;;11.00;8.77;;;17.80;81.70;;;;;;8254613;28;20476;-74
2021/05/12 16:29:03;;;;;;;14.30;9.80;;;17.50;83.30;;;;;;8260902;28;20272;-75
2021/05/12 16:33:04;;;;;;;10.80;6.53;;;17.30;85.80;;;;;;8255371;28;20637;-75
2021/05/12 16:37:05;;;;;;;7.80;4.10;;;17.20;85.80;;;;;;8260048;28;20209;-76
2021/05/12 16:41:05;;;;;;;5.73;2.87;;;17.10;83.40;;;;;;8251947;28;20645;-74
2021/05/12 16:45:10;;;;;;;5.43;3.23;;;17.00;85.10;;;;;;8253910;28;21360;-74
2021/05/12 16:49:15;;;;;;;2.90;2.70;;;17.20;90.20;;;;;;8249402;28;20188;-75
2021/05/12 16:53:17;;;;;;;5.73;3.27;;;17.70;90.00;;;;;;8249534;28;20511;-74
2021/05/12 16:57:18;;;;;;;3.23;2.90;;;18.40;89.30;;;;;;8241508;28;21022;-74
2021/05/12 17:01:21;;;;;;;2.77;2.33;;;19.00;86.00;;;;;;8246420;28;20473;-75
2021/05/12 17:05:22;;;;;;;5.67;1.90;;;19.50;82.40;;;;;;8246274;28;20511;-75
2021/05/12 17:09:30;;;;;;;1.73;1.50;;;19.80;83.70;;;;;;8249512;28;20451;-73
2021/05/12 17:13:31;;;;;;;2.90;1.90;;;19.80;80.80;;;;;;8253616;28;20448;-74
2021/05/12 17:17:31;;;;;;;2.03;1.93;;;19.70;80.40;;;;;;8249624;28;20459;-75
2021/05/12 17:21:32;;;;;;;4.33;2.40;;;19.40;78.80;;;;;;8268585;28;20635;-74
2021/05/12 17:25:33;;;;;;;2.80;2.17;;;19.10;79.20;;;;;;8245036;28;20237;-74
2021/05/12 17:29:33;;;;;;;2.87;2.60;;;18.90;80.50;;;;;;8241678;28;20204;-75
2021/05/12 17:33:34;;;;;;;3.63;2.33;;;18.90;81.70;;;;;;8243472;28;20210;-74
2021/05/12 17:37:35;;;;;;;2.60;2.40;;;19.10;81.70;;;;;;8250836;28;20200;-75
2021/05/12 17:41:37;;;;;;;2.13;2.00;;;19.30;81.90;;;;;;8249849;28;20201;-74
2021/05/12 17:45:38;;;;;;;8.53;3.23;;;19.40;81.80;;;;;;8249200;28;20478;-75
2021/05/12 17:49:38;;;;;;;3.07;2.87;;;19.30;80.30;;;;;;8251818;28;20443;-75
2021/05/12 17:53:39;;;;;;;2.67;2.47;;;19.00;81.60;;;;;;8228014;28;20461;-76
2021/05/12 17:57:40;;;;;;;8.03;2.93;;;18.70;83.40;;;;;;8246226;28;20198;-75
2021/05/12 18:01:41;;;;;;;2.73;2.63;;;18.60;83.90;;;;;;8238629;28;20215;-75
2021/05/12 18:05:48;;;;;;;3.43;2.63;;;18.60;83.50;;;;;;8239607;28;20299;-77
2021/05/12 18:09:49;;;;;;;3.67;3.33;;;18.50;83.90;;;;;;8243726;28;20237;-76
2021/05/12 18:18:12;;;;;;;4.57;4.10;;;18.30;83.70;;;;;;8250979;28;20445;-76
2021/05/12 18:22:12;;;;;;;8.73;4.97;;;18.00;84.40;;;;;;8245107;28;20484;-76
2021/05/12 18:26:13;;;;;;;10.67;5.27;;;17.60;85.50;;;;;;8245058;28;20479;-74
2021/05/12 18:30:14;;;;;;;5.53;4.97;;;17.40;86.60;;;;;;8246631;28;20760;-74
2021/05/12 18:34:19;;;;;;;6.00;5.37;;;17.10;87.10;;;;;;8249726;28;20190;-74
2021/05/12 18:38:26;;;;;;;6.40;4.60;;;16.80;87.70;;;;;;8249067;28;20448;-76
2021/05/12 18:42:35;;;;;;;5.07;4.50;;;16.50;88.60;;;;;;8251246;28;20457;-75
2021/05/12 18:46:43;;;;;;;8.63;5.23;;;16.30;89.30;;;;;;8235944;28;20472;-76
2021/05/12 18:50:43;;;;;;;6.60;6.10;;;16.20;90.30;;;;;;8256318;28;20448;-76
2021/05/12 18:54:47;;;;;;;9.10;6.83;;;16.00;90.70;;;;;;8249560;28;20510;-77
2021/05/12 18:58:47;;;;;;;10.57;6.27;;;15.90;90.70;;;;;;8256794;28;20198;-74
2021/05/12 19:02:52;;;;;;;6.80;5.93;;;15.80;90.90;;;;;;8249161;28;20500;-75
2021/05/12 19:07:03;;;;;;;10.23;7.17;;;15.80;91.20;;;;;;8250158;28;20184;-75
2021/05/12 19:11:11;;;;;;;11.50;8.50;;;15.70;91.60;;;;;;8283479;28;20475;-75
2021/05/12 19:15:23;;;;;;;7.50;6.90;;;15.70;92.10;;;;;;8238089;28;20467;-75
2021/05/12 19:19:49;;;;;;;12.93;8.20;;;15.60;92.30;;;;;;8260176;28;20443;-75
2021/05/12 19:41:17;;;;;;;12.63;10.40;;;15.20;92.60;;;;;;8260703;28;20447;-75
2021/05/12 19:45:19;;;;;;;12.47;11.03;;;15.20;92.50;;;;;;8255370;28;20494;-75
2021/05/12 19:49:19;;;;;;;9.73;8.73;;;15.20;92.90;;;;;;8245932;28;20454;-75
2021/05/12 19:53:22;;;;;;;13.27;9.40;;;15.20;93.20;;;;;;8248335;28;20443;-74
2021/05/12 20:01:31;;;;;;;11.93;9.13;;;15.20;93.30;;;;;;8246846;28;20442;-74
2021/05/12 20:05:41;;;;;;;12.50;7.60;;;15.20;93.20;;;;;;8253883;28;20523;-74
2021/05/12 20:13:51;;;;;;;8.03;7.30;;;15.10;93.10;;;;;;8257664;28;21045;-75
2021/05/12 20:17:52;;;;;;;9.67;8.73;;;15.10;93.20;;;;;;8255633;28;21121;-75
2021/05/12 20:21:52;;;;;;;11.13;8.90;;;15.00;93.20;;;;;;8250187;28;20187;-74
2021/05/12 20:25:54;;;;;;;11.77;8.23;;;15.00;93.10;;;;;;8254322;28;20219;-75
2021/05/12 20:29:54;;;;;;;12.20;8.20;;;14.90;93.00;;;;;;8254009;28;20216;-77
2021/05/12 20:38:17;;;;;;;9.23;7.20;;;14.80;93.30;;;;;;8251711;28;20277;-74
2021/05/12 20:42:18;;;;;;;10.43;8.73;;;14.70;93.40;;;;;;8252531;28;20442;-74
2021/05/12 20:46:19;;;;;;;9.87;8.83;;;14.60;93.60;;;;;;8251978;28;20230;-74
2021/05/12 20:50:21;;;;;;;11.87;9.60;;;14.50;93.70;;;;;;8256665;28;20450;-75
2021/05/12 20:54:23;;;;;;;12.67;9.97;;;14.40;93.80;;;;;;8257238;28;20647;-75
2021/05/12 20:58:23;;;;;;;13.73;8.73;;;14.20;94.00;;;;;;8255309;28;22305;-75
2021/05/12 21:02:25;;;;;;;13.73;9.47;;;14.10;94.10;;;;;;8254141;28;20449;-75
2021/05/12 21:06:25;;;;;;;13.90;11.00;;;14.10;94.30;;;;;;8246985;28;20568;-75
2021/05/12 21:10:26;;;;;;;15.50;11.70;;;14.00;94.50;;;;;;8248550;28;20448;-74
2021/05/12 21:14:27;;;;;;;20.73;13.50;;;13.90;94.50;;;;;;8263529;28;20200;-75
2021/05/12 21:18:27;;;;;;;18.73;12.80;;;13.80;94.50;;;;;;8265700;28;20188;-75
2021/05/12 21:22:37;;;;;;;19.93;14.10;;;13.70;94.60;;;;;;8251242;28;20223;-74
2021/05/12 21:26:40;;;;;;;21.00;14.70;;;13.50;94.70;;;;;;8255690;28;20224;-75
2021/05/12 21:30:50;;;;;;;19.47;14.77;;;13.40;94.80;;;;;;8257430;28;20987;-73
2021/05/12 21:34:51;;;;;;;17.50;15.33;;;13.30;95.00;;;;;;8249630;28;20448;-74
2021/05/12 21:38:52;;;;;;;25.17;18.57;;;13.20;95.10;;;;;;8251034;28;20444;-75